Latest Weather Observations for Tibooburra Airport

IDN60801

Issued at 9:02 pm EDT Friday 27 March 2015 (issued every 30 minutes, with the page automatically refreshed every 10 minutes)

About weather observations | Map of weather stations | Latest weather observations for NSW | Other Formats
Station Details ID: 046126 Name: TIBOOBURRA AIRPORT Lat: -29.44 Lon: 142.06 Height: 176.4 m
Data from the previous 72 hours. | See also: Recent months for locations in New South Wales
Date/Time
EDT
Temp
°C
App
Temp
°C
Dew
Point
Rel
Hum
%
Delta-T
°C
Wind Press
QNH
hPa
Press
MSL
hPa
Rain
since 9 am
mm
Dir
 
Spd
km/h
Gust
km/h
Spd
kts
Gust
kts
27/09:00pm 19.9 - - - - S 15 17 8 9 1023.8 1022.9 0.0
27/08:30pm 20.5 - - - - S 17 22 9 12 1023.6 1022.7 0.0
27/08:00pm 21.1 - - - - S 19 26 10 14 1023.0 1022.1 0.0
27/07:30pm 21.7 - - - - S 20 30 11 16 1022.7 1021.7 0.0
27/07:00pm 22.5 - - - - SSE 20 32 11 17 1022.6 1021.6 0.0
27/06:30pm 23.3 - - - - SSE 20 28 11 15 1022.6 1021.6 0.0
27/06:00pm 23.3 - - - - SSE 22 32 12 17 1022.7 1021.7 0.0
27/05:30pm 23.8 - - - - SSE 19 26 10 14 1022.8 1021.8 0.0
27/05:00pm 23.0 - - - - SSE 24 33 13 18 1022.7 1021.7 0.0
27/04:30pm 23.5 - - - - SSE 20 32 11 17 1022.9 1022.0 0.0
27/04:00pm 22.9 - - - - SSE 24 32 13 17 1023.3 1022.4 0.0
27/03:30pm 22.5 - - - - SSE 22 33 12 18 1023.6 1022.7 0.0
27/03:00pm 22.7 - - - - SSE 19 30 10 16 1024.0 1023.1 0.0
27/02:30pm 22.8 - - - - SSE 20 35 11 19 1024.5 1023.6 0.0
27/02:00pm 21.9 - - - - SSE 22 35 12 19 1025.1 1024.2 0.0
27/01:30pm 21.2 - - - - SE 20 37 11 20 1025.7 1024.8 0.0
27/01:00pm 21.1 - - - - SE 24 35 13 19 1026.2 1025.3 0.0
27/12:30pm 20.5 - - - - SE 24 37 13 20 1026.7 1025.8 0.0
27/12:00pm 19.8 - - - - SE 24 39 13 21 1027.1 1026.2 0.0
27/11:30am 18.8 - - - - SE 24 32 13 17 1027.5 1026.6 0.0
27/11:00am 17.9 - - - - SE 24 33 13 18 1027.9 1027.1 0.0
27/10:30am 17.5 - - - - SE 26 33 14 18 1027.9 1027.1 0.0
27/10:00am 16.2 - - - - SE 28 35 15 19 1027.7 1026.8 0.0
27/09:30am 15.4 - - - - SE 28 37 15 20 1027.5 1026.6 0.0
27/09:00am 14.2 - - - - SSE 26 33 14 18 1027.3 1026.4 0.0
27/08:30am 13.3 - - - - SSE 19 26 10 14 1027.0 1026.1 0.0
27/08:00am 12.4 - - - - S 17 22 9 12 1026.7 1025.8 0.0
27/07:30am 12.4 - - - - SSE 19 24 10 13 1026.4 1025.5 0.0
27/07:00am 12.8 - - - - SSE 17 20 9 11 1025.9 1025.0 0.0
27/06:30am 12.9 - - - - SSE 13 17 7 9 1025.5 1024.6 0.0
27/06:00am 13.2 - - - - SSE 13 17 7 9 1025.3 1024.4 0.0
27/05:30am 13.3 - - - - SSE 13 17 7 9 1025.2 1024.3 0.0
27/05:00am 13.8 - - - - SE 15 19 8 10 1025.3 1024.4 0.0
27/04:30am 14.2 - - - - SE 15 19 8 10 1025.3 1024.4 0.0
27/04:00am 14.4 - - - - SSE 15 19 8 10 1025.2 1024.3 0.0
27/03:30am 14.8 - - - - SSE 17 20 9 11 1025.2 1024.3 0.0
27/03:00am 15.2 - - - - SSE 17 24 9 13 1025.3 1024.4 0.0
27/02:30am 15.7 - - - - SSE 17 24 9 13 1025.2 1024.3 0.0
27/02:00am 15.8 - - - - SSE 17 22 9 12 1025.2 1024.3 0.0
27/01:30am 15.9 - - - - SSE 13 19 7 10 1025.2 1024.3 0.0
27/01:00am 15.7 - - - - S 13 15 7 8 1025.3 1024.4 0.0
27/12:30am 16.4 - - - - S 11 15 6 8 1025.3 1024.4 0.0
27/12:00am 17.2 - - - - SSE 13 19 7 10 1025.3 1024.4 0.0
 
Date/Time
EDT
Temp
°C
App
Temp
°C
Dew
Point
Rel
Hum
%
Delta-T
°C
Wind Press
QNH
hPa
Press
MSL
hPa
Rain
since 9 am
mm
Dir
 
Spd
km/h
Gust
km/h
Spd
kts
Gust
kts
26/11:30pm 17.5 - - - - S 15 20 8 11 1025.3 1024.4 0.0
26/11:00pm 17.8 - - - - S 15 17 8 9 1025.3 1024.4 0.0
26/10:30pm 18.7 - - - - SSW 17 20 9 11 1025.1 1024.2 0.0
26/10:00pm 19.2 - - - - SSW 19 20 10 11 1025.1 1024.2 0.0
26/09:30pm 19.7 - - - - SSW 19 22 10 12 1024.6 1023.7 0.0
26/09:00pm 20.4 - - - - S 19 24 10 13 1024.1 1023.2 0.0
26/08:30pm 20.9 - - - - SSW 19 26 10 14 1023.8 1022.9 0.0
26/08:00pm 21.5 - - - - S 19 24 10 13 1023.4 1022.5 0.0
26/07:30pm 22.0 - - - - S 20 30 11 16 1023.2 1022.3 0.0
26/07:00pm 22.8 - - - - S 22 28 12 15 1022.8 1021.8 0.0
26/06:30pm 23.3 - - - - S 24 33 13 18 1022.6 1021.6 0.0
26/06:00pm 23.4 - - - - S 20 32 11 17 1022.6 1021.6 0.0
26/05:30pm 23.8 - - - - S 22 33 12 18 1022.6 1021.6 0.0
26/05:00pm 23.7 - - - - S 24 33 13 18 1022.5 1021.5 0.0
26/04:30pm 24.1 - - - - S 20 32 11 17 1022.5 1021.5 0.0
26/04:00pm 24.2 - - - - SSW 20 33 11 18 1022.7 1021.7 0.0
26/03:30pm 23.3 - - - - S 22 33 12 18 1022.9 1022.0 0.0
26/03:00pm 23.2 - - - - S 19 26 10 14 1023.3 1022.4 0.0
26/02:30pm 23.1 - - - - S 20 33 11 18 1023.8 1022.9 0.0
26/02:00pm 23.5 - - - - S 22 30 12 16 1024.2 1023.3 0.0
26/01:30pm 22.2 - - - - SSE 20 32 11 17 1024.6 1023.7 0.0
26/01:00pm 22.1 - - - - S 24 39 13 21 1024.9 1024.0 0.0
26/12:30pm 21.4 - - - - S 24 32 13 17 1025.1 1024.2 0.0
26/12:00pm 21.1 - - - - SSE 28 35 15 19 1025.2 1024.3 0.0
26/11:30am 20.3 - - - - SSE 24 32 13 17 1025.2 1024.3 0.0
26/11:00am 19.6 - - - - S 24 32 13 17 1025.1 1024.2 0.0
26/10:30am 19.3 - - - - S 26 33 14 18 1025.0 1024.1 0.0
26/10:00am 18.8 - - - - S 30 37 16 20 1024.8 1023.9 0.0
26/09:30am 18.1 - - - - S 28 37 15 20 1024.2 1023.3 0.0
26/09:00am 17.7 - - - - S 28 39 15 21 1023.7 1022.8 0.0
26/08:57am 17.5 - - - - S 28 37 15 20 1023.6 1022.7 0.0
26/08:30am 15.7 - - - - SW 9 15 5 8 1023.0 1022.1 0.0
26/08:00am 14.4 - - - - SW 11 13 6 7 1022.7 1021.7 0.0
26/07:30am 14.0 - - - - SW 11 13 6 7 1022.3 1021.3 0.0
26/07:00am 14.5 - - - - SW 11 13 6 7 1021.7 1020.8 0.0
26/06:30am 14.5 - - - - SW 9 11 5 6 1021.5 1020.6 0.0
26/06:00am 14.5 - - - - SW 9 11 5 6 1021.1 1020.2 0.0
26/05:30am 15.6 - - - - SSW 15 17 8 9 1020.8 1019.9 0.0
26/05:00am 16.2 - - - - SW 17 20 9 11 1020.6 1019.7 0.0
26/04:30am 14.7 - - - - SW 13 17 7 9 1020.6 1019.7 0.0
26/04:00am 15.3 - - - - WSW 11 13 6 7 1020.4 1019.5 0.0
26/03:30am 15.7 - - - - WSW 11 13 6 7 1020.4 1019.5 0.0
26/03:00am 15.7 - - - - WSW 9 11 5 6 1020.4 1019.5 0.0
26/02:30am 16.0 - - - - WSW 7 7 4 4 1020.6 1019.7 0.0
26/02:00am 16.3 - - - - SW 11 11 6 6 1020.6 1019.7 0.0
26/01:30am 17.1 - - - - WSW 11 13 6 7 1020.6 1019.7 0.0
26/01:00am 17.3 - - - - WSW 13 15 7 8 1020.6 1019.7 0.0
26/12:30am 17.5 - - - - WSW 11 13 6 7 1020.5 1019.6 0.0
26/12:00am 17.8 - - - - SW 11 13 6 7 1020.7 1019.8 0.0
 
Date/Time
EDT
Temp
°C
App
Temp
°C
Dew
Point
Rel
Hum
%
Delta-T
°C
Wind Press
QNH
hPa
Press
MSL
hPa
Rain
since 9 am
mm
Dir
 
Spd
km/h
Gust
km/h
Spd
kts
Gust
kts
25/11:30pm 18.3 - - - - WSW 11 13 6 7 1020.6 1019.7 0.0
25/11:00pm 19.0 - - - - SW 11 11 6 6 1020.6 1019.7 0.0
25/10:30pm 19.5 - - - - SW 11 13 6 7 1020.4 1019.5 0.0
25/10:00pm 20.3 - - - - SSW 11 13 6 7 1020.4 1019.5 0.0
25/09:30pm 21.0 - - - - SW 11 13 6 7 1020.3 1019.4 0.0
25/09:00pm 21.8 - - - - SW 15 17 8 9 1020.1 1019.2 0.0
25/08:30pm 22.4 - - - - SW 19 24 10 13 1019.6 1018.7 0.0
25/08:00pm 22.9 - - - - SW 20 26 11 14 1019.1 1018.2 0.0
25/07:30pm 23.6 - - - - SW 22 28 12 15 1018.7 1017.8 0.0
25/07:00pm 24.3 - - - - SW 24 32 13 17 1018.4 1017.5 0.0
25/06:30pm 25.2 - - - - SW 20 26 11 14 1018.1 1017.2 0.0
25/06:00pm 25.4 - - - - SSW 19 26 10 14 1017.8 1016.8 0.0
25/05:30pm 25.0 - - - - SW 19 30 10 16 1017.7 1016.7 0.0
25/05:00pm 25.2 - - - - SW 24 32 13 17 1017.7 1016.7 0.0
25/04:30pm 25.7 - - - - SW 17 26 9 14 1017.9 1017.0 0.0
25/04:00pm 24.9 - - - - SSW 20 28 11 15 1017.9 1017.0 0.0
25/03:30pm 24.4 - - - - SSW 20 32 11 17 1018.2 1017.3 0.0
25/03:00pm 24.4 - - - - SSW 19 32 10 17 1018.5 1017.6 0.0
25/02:30pm 23.8 - - - - SSW 17 28 9 15 1018.9 1018.0 0.0
25/02:00pm 23.7 - - - - SSW 19 32 10 17 1019.2 1018.3 0.0
25/01:30pm 23.6 - - - - SSW 19 30 10 16 1019.6 1018.7 0.0
25/01:00pm 22.9 - - - - SSW 15 26 8 14 1019.9 1019.0 0.0
25/12:30pm 22.9 - - - - SSE 15 26 8 14 1020.2 1019.3 0.0
25/12:00pm 22.2 - - - - SSW 11 17 6 9 1020.5 1019.6 0.0
25/11:30am 21.1 - - - - ESE 13 17 7 9 1020.5 1019.6 0.0
25/11:00am 20.5 - - - - ESE 17 24 9 13 1020.6 1019.7 0.0
25/10:30am 19.9 - - - - E 19 24 10 13 1020.7 1019.8 0.0
25/10:00am 18.6 - - - - ESE 22 26 12 14 1020.5 1019.6 0.0
25/09:30am 17.9 - - - - SE 20 26 11 14 1020.4 1019.5 0.0
25/09:00am 16.6 - - - - SE 19 26 10 14 1020.0 1019.1 0.0
25/08:30am 15.6 - - - - SSE 15 19 8 10 1019.7 1018.8 0.0
25/08:00am 14.5 - - - - SSE 13 19 7 10 1019.5 1018.6 0.0
25/07:30am 14.4 - - - - SSE 15 20 8 11 1019.2 1018.3 0.0
25/07:00am 14.5 - - - - SSE 13 17 7 9 1018.8 1017.9 0.0
25/06:30am 14.9 - - - - SSE 17 24 9 13 1018.5 1017.6 0.0
25/06:00am 15.0 - - - - SSE 17 20 9 11 1018.4 1017.5 0.0
25/05:30am 15.4 - - - - S 19 24 10 13 1018.2 1017.3 0.0
25/05:00am 15.7 - - - - SSE 17 22 9 12 1018.0 1017.1 0.0
25/04:30am 16.1 - - - - SSE 19 24 10 13 1018.0 1017.1 0.0
25/04:00am 16.5 - - - - S 19 26 10 14 1018.1 1017.2 0.0
25/03:30am 16.7 - - - - S 19 24 10 13 1018.0 1017.1 0.0
25/03:00am 17.1 - - - - S 17 24 9 13 1018.0 1017.1 0.0
25/02:30am 17.8 - - - - SSE 20 28 11 15 1018.1 1017.2 0.0
25/02:00am 18.1 - - - - SSE 19 24 10 13 1018.0 1017.1 0.0
25/01:30am 18.7 - - - - SSE 19 26 10 14 1018.2 1017.3 0.0
25/01:00am 19.1 - - - - S 20 26 11 14 1018.2 1017.3 0.0
25/12:30am 19.5 - - - - S 22 28 12 15 1018.3 1017.4 0.0
25/12:00am 20.0 - - - - S 22 30 12 16 1018.4 1017.5 0.0
 
Date/Time
EDT
Temp
°C
App
Temp
°C
Dew
Point
Rel
Hum
%
Delta-T
°C
Wind Press
QNH
hPa
Press
MSL
hPa
Rain
since 9 am
mm
Dir
 
Spd
km/h
Gust
km/h
Spd
kts
Gust
kts
24/11:30pm 20.3 - - - - S 19 26 10 14 1018.5 1017.6 0.0
24/11:00pm 20.9 - - - - S 20 26 11 14 1018.2 1017.3 0.0
24/10:30pm 21.3 - - - - S 19 24 10 13 1018.2 1017.3 0.0
24/10:00pm 21.9 - - - - S 19 24 10 13 1017.9 1017.0 0.0
24/09:30pm 22.4 - - - - S 20 28 11 15 1017.6 1016.6 0.0

Other Formats:

Comma delimited format used in spreadsheet applications
http://www.bom.gov.au/fwo/IDN60801/IDN60801.95485.axf

JavaScript Object Notation format (JSON) in row-major order
http://www.bom.gov.au/fwo/IDN60801/IDN60801.95485.json